sensor_id;sensor_type;location;lat;lon;timestamp;P1;durP1;ratioP1;P2;durP2;ratioP2
7519;SDS011;3801;48.876;10.184;2022-10-31T00:00:16;9.53;;;3.97;;
7519;SDS011;3801;48.876;10.184;2022-10-31T00:05:19;6.43;;;3.73;;
7519;SDS011;3801;48.876;10.184;2022-10-31T00:10:23;5.43;;;3.43;;
7519;SDS011;3801;48.876;10.184;2022-10-31T00:15:27;12.80;;;4.53;;
7519;SDS011;3801;48.876;10.184;2022-10-31T00:20:31;9.90;;;3.90;;
7519;SDS011;3801;48.876;10.184;2022-10-31T00:25:35;8.47;;;3.40;;
7519;SDS011;3801;48.876;10.184;2022-10-31T00:30:39;11.67;;;3.50;;
7519;SDS011;3801;48.876;10.184;2022-10-31T00:35:43;9.37;;;3.33;;
7519;SDS011;3801;48.876;10.184;2022-10-31T00:40:52;10.87;;;3.73;;
7519;SDS011;3801;48.876;10.184;2022-10-31T00:45:56;7.90;;;3.37;;
7519;SDS011;3801;48.876;10.184;2022-10-31T00:51:00;4.50;;;2.43;;
7519;SDS011;3801;48.876;10.184;2022-10-31T00:56:03;6.83;;;3.03;;
7519;SDS011;3801;48.876;10.184;2022-10-31T01:01:08;11.30;;;3.03;;
7519;SDS011;3801;48.876;10.184;2022-10-31T01:06:12;5.03;;;3.03;;
7519;SDS011;3801;48.876;10.184;2022-10-31T01:11:16;6.27;;;3.10;;
7519;SDS011;3801;48.876;10.184;2022-10-31T01:16:22;7.43;;;3.27;;
7519;SDS011;3801;48.876;10.184;2022-10-31T01:21:26;7.60;;;2.87;;
7519;SDS011;3801;48.876;10.184;2022-10-31T01:26:32;5.97;;;2.80;;
7519;SDS011;3801;48.876;10.184;2022-10-31T01:31:38;6.97;;;3.07;;
7519;SDS011;3801;48.876;10.184;2022-10-31T01:36:42;6.03;;;2.97;;
7519;SDS011;3801;48.876;10.184;2022-10-31T01:41:47;5.83;;;3.20;;
7519;SDS011;3801;48.876;10.184;2022-10-31T01:46:53;9.83;;;4.10;;
7519;SDS011;3801;48.876;10.184;2022-10-31T01:51:58;9.10;;;4.53;;
7519;SDS011;3801;48.876;10.184;2022-10-31T01:57:02;7.70;;;3.20;;
7519;SDS011;3801;48.876;10.184;2022-10-31T02:02:09;8.47;;;3.00;;
7519;SDS011;3801;48.876;10.184;2022-10-31T02:07:14;6.20;;;2.53;;
7519;SDS011;3801;48.876;10.184;2022-10-31T02:12:17;7.73;;;3.20;;
7519;SDS011;3801;48.876;10.184;2022-10-31T02:17:22;5.83;;;3.10;;
7519;SDS011;3801;48.876;10.184;2022-10-31T02:22:26;5.50;;;2.73;;
7519;SDS011;3801;48.876;10.184;2022-10-31T02:33:11;8.60;;;3.30;;
7519;SDS011;3801;48.876;10.184;2022-10-31T02:38:24;8.40;;;3.17;;
7519;SDS011;3801;48.876;10.184;2022-10-31T02:43:31;4.03;;;2.73;;
7519;SDS011;3801;48.876;10.184;2022-10-31T02:48:37;5.70;;;2.73;;
7519;SDS011;3801;48.876;10.184;2022-10-31T02:53:42;6.13;;;3.13;;
7519;SDS011;3801;48.876;10.184;2022-10-31T02:58:46;7.07;;;3.23;;
7519;SDS011;3801;48.876;10.184;2022-10-31T03:03:55;6.07;;;2.80;;
7519;SDS011;3801;48.876;10.184;2022-10-31T03:09:03;9.83;;;3.20;;
7519;SDS011;3801;48.876;10.184;2022-10-31T03:14:16;5.93;;;2.73;;
7519;SDS011;3801;48.876;10.184;2022-10-31T03:19:29;7.87;;;3.20;;
7519;SDS011;3801;48.876;10.184;2022-10-31T03:24:34;8.57;;;2.87;;
7519;SDS011;3801;48.876;10.184;2022-10-31T03:29:38;5.40;;;2.80;;
7519;SDS011;3801;48.876;10.184;2022-10-31T03:34:44;5.50;;;2.77;;
7519;SDS011;3801;48.876;10.184;2022-10-31T03:39:49;5.23;;;2.60;;
7519;SDS011;3801;48.876;10.184;2022-10-31T03:44:56;9.13;;;2.80;;
7519;SDS011;3801;48.876;10.184;2022-10-31T03:50:03;5.93;;;2.93;;
7519;SDS011;3801;48.876;10.184;2022-10-31T03:55:07;7.73;;;2.87;;
7519;SDS011;3801;48.876;10.184;2022-10-31T04:00:13;6.20;;;3.10;;
7519;SDS011;3801;48.876;10.184;2022-10-31T04:05:21;7.20;;;3.80;;
7519;SDS011;3801;48.876;10.184;2022-10-31T04:10:26;4.77;;;3.03;;
7519;SDS011;3801;48.876;10.184;2022-10-31T04:15:34;6.27;;;3.20;;
7519;SDS011;3801;48.876;10.184;2022-10-31T04:20:40;7.47;;;3.40;;
7519;SDS011;3801;48.876;10.184;2022-10-31T04:25:46;5.10;;;3.30;;
7519;SDS011;3801;48.876;10.184;2022-10-31T04:30:51;7.60;;;3.17;;
7519;SDS011;3801;48.876;10.184;2022-10-31T04:35:56;6.70;;;3.47;;
7519;SDS011;3801;48.876;10.184;2022-10-31T04:40:59;4.77;;;2.60;;
7519;SDS011;3801;48.876;10.184;2022-10-31T04:46:26;6.33;;;3.10;;
7519;SDS011;3801;48.876;10.184;2022-10-31T04:51:33;8.00;;;3.03;;
7519;SDS011;3801;48.876;10.184;2022-10-31T04:56:36;7.73;;;3.40;;
7519;SDS011;3801;48.876;10.184;2022-10-31T05:01:45;8.63;;;3.87;;
7519;SDS011;3801;48.876;10.184;2022-10-31T05:06:54;8.43;;;3.10;;
7519;SDS011;3801;48.876;10.184;2022-10-31T05:11:57;6.43;;;3.47;;
7519;SDS011;3801;48.876;10.184;2022-10-31T05:17:19;10.33;;;3.60;;
7519;SDS011;3801;48.876;10.184;2022-10-31T05:23:01;6.97;;;3.17;;
7519;SDS011;3801;48.876;10.184;2022-10-31T05:28:04;6.27;;;2.90;;
7519;SDS011;3801;48.876;10.184;2022-10-31T05:33:09;6.17;;;3.47;;
7519;SDS011;3801;48.876;10.184;2022-10-31T05:38:32;4.60;;;2.87;;
7519;SDS011;3801;48.876;10.184;2022-10-31T05:43:56;6.37;;;2.77;;
7519;SDS011;3801;48.876;10.184;2022-10-31T05:49:05;7.03;;;2.93;;
7519;SDS011;3801;48.876;10.184;2022-10-31T05:54:28;8.43;;;3.10;;
7519;SDS011;3801;48.876;10.184;2022-10-31T05:59:32;5.80;;;3.20;;
7519;SDS011;3801;48.876;10.184;2022-10-31T06:04:36;4.77;;;2.83;;
7519;SDS011;3801;48.876;10.184;2022-10-31T06:09:41;6.80;;;2.87;;
7519;SDS011;3801;48.876;10.184;2022-10-31T06:14:45;4.53;;;3.07;;
7519;SDS011;3801;48.876;10.184;2022-10-31T06:19:48;6.97;;;3.03;;
7519;SDS011;3801;48.876;10.184;2022-10-31T06:25:01;8.07;;;3.87;;
7519;SDS011;3801;48.876;10.184;2022-10-31T06:30:09;8.87;;;3.63;;
7519;SDS011;3801;48.876;10.184;2022-10-31T06:35:12;12.00;;;3.47;;
7519;SDS011;3801;48.876;10.184;2022-10-31T06:40:18;8.03;;;4.03;;
7519;SDS011;3801;48.876;10.184;2022-10-31T06:45:44;12.43;;;7.53;;
7519;SDS011;3801;48.876;10.184;2022-10-31T06:50:47;6.13;;;3.80;;
7519;SDS011;3801;48.876;10.184;2022-10-31T06:55:51;6.80;;;3.83;;
7519;SDS011;3801;48.876;10.184;2022-10-31T07:00:58;12.20;;;4.10;;
7519;SDS011;3801;48.876;10.184;2022-10-31T07:06:01;5.77;;;3.40;;
7519;SDS011;3801;48.876;10.184;2022-10-31T07:11:07;5.30;;;3.00;;
7519;SDS011;3801;48.876;10.184;2022-10-31T07:16:13;16.53;;;2.93;;
7519;SDS011;3801;48.876;10.184;2022-10-31T07:21:17;5.40;;;3.03;;
7519;SDS011;3801;48.876;10.184;2022-10-31T07:26:22;7.03;;;3.03;;
7519;SDS011;3801;48.876;10.184;2022-10-31T07:31:26;6.87;;;3.00;;
7519;SDS011;3801;48.876;10.184;2022-10-31T07:36:34;7.03;;;3.10;;
7519;SDS011;3801;48.876;10.184;2022-10-31T07:41:39;10.77;;;3.50;;
7519;SDS011;3801;48.876;10.184;2022-10-31T07:46:43;6.47;;;3.53;;
7519;SDS011;3801;48.876;10.184;2022-10-31T07:52:05;7.93;;;3.80;;
7519;SDS011;3801;48.876;10.184;2022-10-31T07:57:28;5.90;;;3.30;;
7519;SDS011;3801;48.876;10.184;2022-10-31T08:02:35;6.90;;;3.17;;
7519;SDS011;3801;48.876;10.184;2022-10-31T08:07:59;9.40;;;3.53;;
7519;SDS011;3801;48.876;10.184;2022-10-31T08:13:05;8.70;;;4.57;;
7519;SDS011;3801;48.876;10.184;2022-10-31T08:18:12;6.77;;;4.57;;
7519;SDS011;3801;48.876;10.184;2022-10-31T08:23:16;6.93;;;4.13;;
7519;SDS011;3801;48.876;10.184;2022-10-31T08:28:22;15.23;;;4.97;;
7519;SDS011;3801;48.876;10.184;2022-10-31T08:33:27;8.07;;;4.17;;
7519;SDS011;3801;48.876;10.184;2022-10-31T08:38:54;7.00;;;4.23;;
7519;SDS011;3801;48.876;10.184;2022-10-31T08:44:04;10.17;;;4.80;;
7519;SDS011;3801;48.876;10.184;2022-10-31T08:49:08;8.37;;;4.80;;
7519;SDS011;3801;48.876;10.184;2022-10-31T08:54:12;11.27;;;5.10;;
7519;SDS011;3801;48.876;10.184;2022-10-31T08:59:32;8.27;;;4.37;;
7519;SDS011;3801;48.876;10.184;2022-10-31T09:04:55;8.97;;;5.13;;
7519;SDS011;3801;48.876;10.184;2022-10-31T09:09:58;10.00;;;4.73;;
7519;SDS011;3801;48.876;10.184;2022-10-31T09:15:08;7.90;;;5.03;;
7519;SDS011;3801;48.876;10.184;2022-10-31T09:20:22;8.53;;;4.93;;
7519;SDS011;3801;48.876;10.184;2022-10-31T09:25:26;8.13;;;4.90;;
7519;SDS011;3801;48.876;10.184;2022-10-31T09:30:52;9.87;;;5.57;;
7519;SDS011;3801;48.876;10.184;2022-10-31T09:36:16;12.23;;;5.10;;
7519;SDS011;3801;48.876;10.184;2022-10-31T09:41:21;10.67;;;5.10;;
7519;SDS011;3801;48.876;10.184;2022-10-31T09:46:29;14.07;;;5.10;;
7519;SDS011;3801;48.876;10.184;2022-10-31T09:51:38;8.17;;;4.73;;
7519;SDS011;3801;48.876;10.184;2022-10-31T09:56:49;11.73;;;5.20;;
7519;SDS011;3801;48.876;10.184;2022-10-31T10:01:54;10.47;;;5.70;;
7519;SDS011;3801;48.876;10.184;2022-10-31T10:06:59;8.17;;;4.70;;
7519;SDS011;3801;48.876;10.184;2022-10-31T10:12:35;10.47;;;5.33;;
7519;SDS011;3801;48.876;10.184;2022-10-31T10:17:43;10.70;;;5.70;;
7519;SDS011;3801;48.876;10.184;2022-10-31T10:22:52;12.52;;;5.95;;
7519;SDS011;3801;48.876;10.184;2022-10-31T10:27:59;12.37;;;5.90;;
7519;SDS011;3801;48.876;10.184;2022-10-31T10:33:08;15.95;;;7.13;;
7519;SDS011;3801;48.876;10.184;2022-10-31T10:38:14;10.53;;;6.07;;
7519;SDS011;3801;48.876;10.184;2022-10-31T10:43:20;8.15;;;5.25;;
7519;SDS011;3801;48.876;10.184;2022-10-31T10:48:29;13.85;;;6.05;;
7519;SDS011;3801;48.876;10.184;2022-10-31T10:53:39;13.70;;;5.85;;
7519;SDS011;3801;48.876;10.184;2022-10-31T10:59:08;8.35;;;5.13;;
7519;SDS011;3801;48.876;10.184;2022-10-31T11:04:19;12.65;;;5.47;;
7519;SDS011;3801;48.876;10.184;2022-10-31T11:09:24;7.72;;;5.13;;
7519;SDS011;3801;48.876;10.184;2022-10-31T11:14:28;10.82;;;5.25;;
7519;SDS011;3801;48.876;10.184;2022-10-31T11:19:32;10.10;;;5.13;;
7519;SDS011;3801;48.876;10.184;2022-10-31T11:24:37;9.13;;;5.57;;
7519;SDS011;3801;48.876;10.184;2022-10-31T11:29:40;12.65;;;5.28;;
7519;SDS011;3801;48.876;10.184;2022-10-31T11:34:45;12.18;;;5.50;;
7519;SDS011;3801;48.876;10.184;2022-10-31T11:39:51;15.43;;;5.88;;
7519;SDS011;3801;48.876;10.184;2022-10-31T11:44:56;14.05;;;6.07;;
7519;SDS011;3801;48.876;10.184;2022-10-31T11:50:01;18.60;;;6.53;;
7519;SDS011;3801;48.876;10.184;2022-10-31T11:55:14;11.60;;;6.25;;
7519;SDS011;3801;48.876;10.184;2022-10-31T12:00:20;16.83;;;7.03;;
7519;SDS011;3801;48.876;10.184;2022-10-31T12:05:26;16.75;;;7.07;;
7519;SDS011;3801;48.876;10.184;2022-10-31T12:10:32;16.27;;;6.50;;
7519;SDS011;3801;48.876;10.184;2022-10-31T12:15:38;10.10;;;5.87;;
7519;SDS011;3801;48.876;10.184;2022-10-31T12:20:47;16.75;;;6.90;;
7519;SDS011;3801;48.876;10.184;2022-10-31T12:25:59;13.40;;;6.68;;
7519;SDS011;3801;48.876;10.184;2022-10-31T12:31:08;9.30;;;5.72;;
7519;SDS011;3801;48.876;10.184;2022-10-31T12:36:25;12.18;;;6.18;;
7519;SDS011;3801;48.876;10.184;2022-10-31T12:41:34;13.45;;;6.43;;
7519;SDS011;3801;48.876;10.184;2022-10-31T12:46:52;12.50;;;6.22;;
7519;SDS011;3801;48.876;10.184;2022-10-31T12:52:04;14.68;;;6.97;;
7519;SDS011;3801;48.876;10.184;2022-10-31T12:57:22;11.70;;;6.13;;
7519;SDS011;3801;48.876;10.184;2022-10-31T13:02:27;10.75;;;7.18;;
7519;SDS011;3801;48.876;10.184;2022-10-31T13:07:34;13.10;;;6.88;;
7519;SDS011;3801;48.876;10.184;2022-10-31T13:12:39;15.32;;;7.35;;
7519;SDS011;3801;48.876;10.184;2022-10-31T13:17:43;12.20;;;7.57;;
7519;SDS011;3801;48.876;10.184;2022-10-31T13:22:50;14.68;;;7.65;;
7519;SDS011;3801;48.876;10.184;2022-10-31T13:27:55;15.25;;;7.68;;
7519;SDS011;3801;48.876;10.184;2022-10-31T13:33:00;11.70;;;7.93;;
7519;SDS011;3801;48.876;10.184;2022-10-31T13:38:09;18.50;;;8.20;;
7519;SDS011;3801;48.876;10.184;2022-10-31T13:43:17;19.37;;;9.13;;
7519;SDS011;3801;48.876;10.184;2022-10-31T13:48:36;14.40;;;8.20;;
7519;SDS011;3801;48.876;10.184;2022-10-31T13:53:44;18.00;;;9.00;;
7519;SDS011;3801;48.876;10.184;2022-10-31T13:59:01;17.27;;;9.47;;
7519;SDS011;3801;48.876;10.184;2022-10-31T14:04:06;17.53;;;9.77;;
7519;SDS011;3801;48.876;10.184;2022-10-31T14:09:23;19.07;;;10.57;;
7519;SDS011;3801;48.876;10.184;2022-10-31T14:14:29;15.00;;;10.07;;
7519;SDS011;3801;48.876;10.184;2022-10-31T14:19:33;19.13;;;11.43;;
7519;SDS011;3801;48.876;10.184;2022-10-31T14:24:38;18.80;;;11.03;;
7519;SDS011;3801;48.876;10.184;2022-10-31T14:29:41;17.50;;;11.20;;
7519;SDS011;3801;48.876;10.184;2022-10-31T14:34:52;16.60;;;10.97;;
7519;SDS011;3801;48.876;10.184;2022-10-31T14:40:04;20.67;;;11.90;;
7519;SDS011;3801;48.876;10.184;2022-10-31T14:45:15;23.90;;;13.90;;
7519;SDS011;3801;48.876;10.184;2022-10-31T14:50:22;21.83;;;13.60;;
7519;SDS011;3801;48.876;10.184;2022-10-31T14:55:27;24.73;;;13.50;;
7519;SDS011;3801;48.876;10.184;2022-10-31T15:00:31;22.03;;;12.13;;
7519;SDS011;3801;48.876;10.184;2022-10-31T15:05:35;25.90;;;14.40;;
7519;SDS011;3801;48.876;10.184;2022-10-31T15:10:45;22.23;;;14.00;;
7519;SDS011;3801;48.876;10.184;2022-10-31T15:15:49;18.27;;;12.40;;
7519;SDS011;3801;48.876;10.184;2022-10-31T15:20:53;18.40;;;13.37;;
7519;SDS011;3801;48.876;10.184;2022-10-31T15:25:59;19.60;;;12.07;;
7519;SDS011;3801;48.876;10.184;2022-10-31T15:31:02;19.43;;;13.33;;
7519;SDS011;3801;48.876;10.184;2022-10-31T15:36:06;23.07;;;14.03;;
7519;SDS011;3801;48.876;10.184;2022-10-31T15:41:20;22.73;;;14.60;;
7519;SDS011;3801;48.876;10.184;2022-10-31T15:46:24;22.13;;;13.97;;
7519;SDS011;3801;48.876;10.184;2022-10-31T15:51:29;22.83;;;14.30;;
7519;SDS011;3801;48.876;10.184;2022-10-31T15:56:34;26.97;;;14.60;;
7519;SDS011;3801;48.876;10.184;2022-10-31T16:01:38;22.93;;;14.60;;
7519;SDS011;3801;48.876;10.184;2022-10-31T16:06:41;23.57;;;14.63;;
7519;SDS011;3801;48.876;10.184;2022-10-31T16:11:46;37.70;;;18.13;;
7519;SDS011;3801;48.876;10.184;2022-10-31T16:16:50;21.30;;;13.10;;
7519;SDS011;3801;48.876;10.184;2022-10-31T16:21:55;23.40;;;13.30;;
7519;SDS011;3801;48.876;10.184;2022-10-31T16:27:06;18.23;;;12.10;;
7519;SDS011;3801;48.876;10.184;2022-10-31T16:32:26;22.37;;;13.93;;
7519;SDS011;3801;48.876;10.184;2022-10-31T16:37:29;24.77;;;11.83;;
7519;SDS011;3801;48.876;10.184;2022-10-31T16:42:34;25.60;;;13.47;;
7519;SDS011;3801;48.876;10.184;2022-10-31T16:47:37;27.93;;;13.80;;
7519;SDS011;3801;48.876;10.184;2022-10-31T16:52:40;21.30;;;13.23;;
7519;SDS011;3801;48.876;10.184;2022-10-31T16:58:09;25.30;;;13.57;;
7519;SDS011;3801;48.876;10.184;2022-10-31T17:03:14;27.13;;;15.23;;
7519;SDS011;3801;48.876;10.184;2022-10-31T17:08:17;28.10;;;16.73;;
7519;SDS011;3801;48.876;10.184;2022-10-31T17:13:23;23.23;;;14.87;;
7519;SDS011;3801;48.876;10.184;2022-10-31T17:18:27;21.13;;;15.10;;
7519;SDS011;3801;48.876;10.184;2022-10-31T17:23:31;26.13;;;14.90;;
7519;SDS011;3801;48.876;10.184;2022-10-31T17:28:36;26.90;;;13.53;;
7519;SDS011;3801;48.876;10.184;2022-10-31T17:33:39;23.90;;;14.57;;
7519;SDS011;3801;48.876;10.184;2022-10-31T17:38:43;22.57;;;13.33;;
7519;SDS011;3801;48.876;10.184;2022-10-31T17:43:48;26.70;;;15.27;;
7519;SDS011;3801;48.876;10.184;2022-10-31T17:48:51;24.60;;;15.07;;
7519;SDS011;3801;48.876;10.184;2022-10-31T17:53:54;26.63;;;14.67;;
7519;SDS011;3801;48.876;10.184;2022-10-31T17:58:59;26.53;;;15.90;;
7519;SDS011;3801;48.876;10.184;2022-10-31T18:04:02;36.07;;;19.10;;
7519;SDS011;3801;48.876;10.184;2022-10-31T18:09:06;30.83;;;14.93;;
7519;SDS011;3801;48.876;10.184;2022-10-31T18:14:10;29.87;;;17.10;;
7519;SDS011;3801;48.876;10.184;2022-10-31T18:19:14;23.97;;;13.70;;
7519;SDS011;3801;48.876;10.184;2022-10-31T18:24:17;30.03;;;15.57;;
7519;SDS011;3801;48.876;10.184;2022-10-31T18:29:22;24.03;;;14.93;;
7519;SDS011;3801;48.876;10.184;2022-10-31T18:34:25;26.63;;;16.23;;
7519;SDS011;3801;48.876;10.184;2022-10-31T18:39:29;23.67;;;13.57;;
7519;SDS011;3801;48.876;10.184;2022-10-31T18:44:33;33.03;;;16.77;;
7519;SDS011;3801;48.876;10.184;2022-10-31T18:49:36;24.07;;;13.37;;
7519;SDS011;3801;48.876;10.184;2022-10-31T18:54:40;27.57;;;13.03;;
7519;SDS011;3801;48.876;10.184;2022-10-31T18:59:44;22.97;;;13.73;;
7519;SDS011;3801;48.876;10.184;2022-10-31T19:04:48;19.67;;;12.80;;
7519;SDS011;3801;48.876;10.184;2022-10-31T19:09:51;24.80;;;14.43;;
7519;SDS011;3801;48.876;10.184;2022-10-31T19:14:55;22.13;;;13.83;;
7519;SDS011;3801;48.876;10.184;2022-10-31T19:19:59;23.83;;;11.93;;
7519;SDS011;3801;48.876;10.184;2022-10-31T19:25:02;23.97;;;11.50;;
7519;SDS011;3801;48.876;10.184;2022-10-31T19:30:13;21.20;;;10.20;;
7519;SDS011;3801;48.876;10.184;2022-10-31T19:35:16;23.67;;;13.40;;
7519;SDS011;3801;48.876;10.184;2022-10-31T19:40:20;20.60;;;13.43;;
7519;SDS011;3801;48.876;10.184;2022-10-31T19:45:24;31.63;;;20.23;;
7519;SDS011;3801;48.876;10.184;2022-10-31T19:50:27;22.50;;;14.60;;
7519;SDS011;3801;48.876;10.184;2022-10-31T19:55:31;25.90;;;15.70;;
7519;SDS011;3801;48.876;10.184;2022-10-31T20:00:37;24.70;;;15.83;;
7519;SDS011;3801;48.876;10.184;2022-10-31T20:05:41;22.20;;;13.83;;
7519;SDS011;3801;48.876;10.184;2022-10-31T20:10:51;25.30;;;13.93;;
7519;SDS011;3801;48.876;10.184;2022-10-31T20:15:58;23.60;;;13.83;;
7519;SDS011;3801;48.876;10.184;2022-10-31T20:21:01;25.23;;;14.37;;
7519;SDS011;3801;48.876;10.184;2022-10-31T20:26:07;23.23;;;13.50;;
7519;SDS011;3801;48.876;10.184;2022-10-31T20:31:13;20.53;;;11.83;;
7519;SDS011;3801;48.876;10.184;2022-10-31T20:36:16;20.93;;;10.67;;
7519;SDS011;3801;48.876;10.184;2022-10-31T20:41:21;21.43;;;12.37;;
7519;SDS011;3801;48.876;10.184;2022-10-31T20:46:26;18.73;;;11.53;;
7519;SDS011;3801;48.876;10.184;2022-10-31T20:51:29;21.53;;;12.03;;
7519;SDS011;3801;48.876;10.184;2022-10-31T20:56:33;20.10;;;11.50;;
7519;SDS011;3801;48.876;10.184;2022-10-31T21:01:37;29.77;;;12.47;;
7519;SDS011;3801;48.876;10.184;2022-10-31T21:06:41;24.43;;;13.43;;
7519;SDS011;3801;48.876;10.184;2022-10-31T21:11:50;23.23;;;12.30;;
7519;SDS011;3801;48.876;10.184;2022-10-31T21:16:54;18.53;;;12.50;;
7519;SDS011;3801;48.876;10.184;2022-10-31T21:21:58;14.33;;;9.23;;
7519;SDS011;3801;48.876;10.184;2022-10-31T21:27:01;18.47;;;10.10;;
7519;SDS011;3801;48.876;10.184;2022-10-31T21:32:13;19.90;;;10.80;;
7519;SDS011;3801;48.876;10.184;2022-10-31T21:37:17;19.77;;;8.73;;
7519;SDS011;3801;48.876;10.184;2022-10-31T21:42:20;15.33;;;9.03;;
7519;SDS011;3801;48.876;10.184;2022-10-31T21:47:25;14.70;;;8.17;;
7519;SDS011;3801;48.876;10.184;2022-10-31T21:52:29;14.83;;;8.63;;
7519;SDS011;3801;48.876;10.184;2022-10-31T21:57:32;91.93;;;45.13;;
7519;SDS011;3801;48.876;10.184;2022-10-31T22:02:37;50.37;;;28.47;;
7519;SDS011;3801;48.876;10.184;2022-10-31T22:07:40;30.40;;;17.37;;
7519;SDS011;3801;48.876;10.184;2022-10-31T22:12:43;30.33;;;18.30;;
7519;SDS011;3801;48.876;10.184;2022-10-31T22:17:48;23.93;;;14.07;;
7519;SDS011;3801;48.876;10.184;2022-10-31T22:22:51;28.27;;;17.23;;
7519;SDS011;3801;48.876;10.184;2022-10-31T22:27:54;22.60;;;15.80;;
7519;SDS011;3801;48.876;10.184;2022-10-31T22:32:59;22.23;;;12.90;;
7519;SDS011;3801;48.876;10.184;2022-10-31T22:38:02;20.20;;;12.40;;
7519;SDS011;3801;48.876;10.184;2022-10-31T22:43:06;19.37;;;12.57;;
7519;SDS011;3801;48.876;10.184;2022-10-31T22:48:11;12.17;;;6.80;;
7519;SDS011;3801;48.876;10.184;2022-10-31T22:53:14;18.07;;;9.13;;
7519;SDS011;3801;48.876;10.184;2022-10-31T22:58:17;13.93;;;9.53;;
7519;SDS011;3801;48.876;10.184;2022-10-31T23:03:22;6.10;;;3.73;;
7519;SDS011;3801;48.876;10.184;2022-10-31T23:08:26;5.53;;;2.60;;
7519;SDS011;3801;48.876;10.184;2022-10-31T23:13:29;6.73;;;3.37;;
7519;SDS011;3801;48.876;10.184;2022-10-31T23:18:51;11.60;;;6.63;;
7519;SDS011;3801;48.876;10.184;2022-10-31T23:23:54;15.33;;;7.47;;
7519;SDS011;3801;48.876;10.184;2022-10-31T23:28:58;15.63;;;8.43;;
7519;SDS011;3801;48.876;10.184;2022-10-31T23:34:03;12.47;;;7.90;;
7519;SDS011;3801;48.876;10.184;2022-10-31T23:39:06;12.40;;;8.10;;
7519;SDS011;3801;48.876;10.184;2022-10-31T23:44:09;11.53;;;7.60;;
7519;SDS011;3801;48.876;10.184;2022-10-31T23:49:14;11.17;;;7.27;;
7519;SDS011;3801;48.876;10.184;2022-10-31T23:54:17;12.00;;;6.63;;
7519;SDS011;3801;48.876;10.184;2022-10-31T23:59:20;14.23;;;6.57;;
